Time;durP1;ratioP1;P1;durP2;ratioP2;P2;SDS_P1;SDS_P2;PMS_P1;PMS_P2;Temp;Humidity;BMP_temperature;BMP_pressure;BME280_temperature;BME280_humidity;BME280_pressure;Samples;Min_cycle;Max_cycle;Signal;HPM_P1;HPM_P2
2022/10/12 00:03:06;;;;;;;;;;;7.80;99.90;;;;;;12499677;28;19925;-36
2022/10/12 00:09:08;;;;;;;;;;;7.70;99.90;;;;;;12497010;28;19975;-36
2022/10/12 00:15:10;;;;;;;;;;;7.50;99.90;;;;;;12504372;28;19925;-36
2022/10/12 00:21:13;;;;;;;;;;;7.60;99.90;;;;;;12486999;28;19925;-36
2022/10/12 00:27:15;;;;;;;;;;;7.40;99.90;;;;;;12489958;28;20382;-35
2022/10/12 00:33:17;;;;;;;;;;;7.30;99.90;;;;;;12497523;28;20026;-36
2022/10/12 00:39:19;;;;;;;;;;;7.40;99.90;;;;;;12494878;28;19971;-36
2022/10/12 00:45:22;;;;;;;;;;;7.50;99.90;;;;;;12496155;28;19925;-36
2022/10/12 00:51:24;;;;;;;;;;;7.60;99.90;;;;;;12490875;28;19936;-36
2022/10/12 00:57:26;;;;;;;;;;;7.60;99.90;;;;;;12508457;28;19929;-36
2022/10/12 01:03:28;;;;;;;;;;;7.60;99.90;;;;;;12506625;28;19929;-36
2022/10/12 01:09:30;;;;;;;;;;;7.50;99.90;;;;;;12504703;28;19929;-36
2022/10/12 01:15:58;;;;;;;;;;;7.40;99.90;;;;;;12512349;28;19929;-36
2022/10/12 01:22:01;;;;;;;;;;;7.20;99.90;;;;;;12475649;28;19929;-36
2022/10/12 01:28:13;;;;;;;;;;;7.20;99.90;;;;;;12499409;28;19933;-36
2022/10/12 01:34:25;;;;;;;;;;;7.10;99.90;;;;;;12498702;28;19929;-36
2022/10/12 01:40:33;;;;;;;;;;;7.00;99.90;;;;;;12510086;28;20023;-36
2022/10/12 01:46:38;;;;;;;;;;;7.10;99.90;;;;;;12516961;28;20296;-36
2022/10/12 01:52:44;;;;;;;;;;;6.80;99.90;;;;;;12510491;28;19927;-36
2022/10/12 01:58:52;;;;;;;;;;;6.90;99.90;;;;;;12500740;28;20300;-36
2022/10/12 02:05:13;;;;;;;;;;;6.90;99.90;;;;;;12496757;28;19940;-36
2022/10/12 02:11:16;;;;;;;;;;;6.90;99.90;;;;;;12485485;28;19948;-36
2022/10/12 02:17:20;;;;;;;;;;;7.00;99.90;;;;;;12496685;28;19929;-36
2022/10/12 02:23:23;;;;;;;;;;;6.80;99.90;;;;;;12474189;28;19948;-36
2022/10/12 02:29:31;;;;;;;;;;;6.70;99.90;;;;;;12498186;28;19925;-36
2022/10/12 02:35:39;;;;;;;;;;;6.80;99.90;;;;;;12493495;28;19953;-36
2022/10/12 02:41:44;;;;;;;;;;;6.90;99.90;;;;;;12494409;28;19925;-36
2022/10/12 02:47:46;;;;;;;;;;;6.90;99.90;;;;;;12499189;28;20304;-36
2022/10/12 02:53:49;;;;;;;;;;;6.80;99.90;;;;;;12487369;28;19936;-37
2022/10/12 02:59:50;;;;;;;;;;;6.90;99.90;;;;;;12491707;28;20383;-36
2022/10/12 03:05:52;;;;;;;;;;;6.90;99.90;;;;;;12502901;28;19928;-36
2022/10/12 03:11:54;;;;;;;;;;;6.90;99.90;;;;;;12504687;28;19925;-36
2022/10/12 03:17:56;;;;;;;;;;;6.80;99.90;;;;;;12498174;28;19933;-36
2022/10/12 03:23:58;;;;;;;;;;;6.70;99.90;;;;;;12498883;28;20340;-36
2022/10/12 03:30:00;;;;;;;;;;;6.60;99.90;;;;;;12492008;28;20301;-36
2022/10/12 03:36:01;;;;;;;;;;;6.60;99.90;;;;;;12473030;28;19933;-36
2022/10/12 03:42:03;;;;;;;;;;;6.80;99.90;;;;;;12488454;28;19929;-36
2022/10/12 03:48:05;;;;;;;;;;;6.60;99.90;;;;;;12471965;28;19951;-36
2022/10/12 03:54:07;;;;;;;;;;;6.50;99.90;;;;;;12473602;28;20401;-37
2022/10/12 04:00:09;;;;;;;;;;;6.50;99.90;;;;;;12480872;28;19929;-36
2022/10/12 04:06:11;;;;;;;;;;;6.40;99.90;;;;;;12479980;28;19929;-36
2022/10/12 04:12:13;;;;;;;;;;;6.40;99.90;;;;;;12490048;28;20450;-36
2022/10/12 04:18:15;;;;;;;;;;;6.50;99.90;;;;;;12480732;28;19925;-36
2022/10/12 04:24:17;;;;;;;;;;;6.40;99.90;;;;;;12480487;28;19994;-36
2022/10/12 04:30:19;;;;;;;;;;;6.20;99.90;;;;;;12469562;28;20304;-36
2022/10/12 04:36:20;;;;;;;;;;;6.00;99.90;;;;;;12505197;28;19933;-37
2022/10/12 04:42:22;;;;;;;;;;;6.00;99.90;;;;;;12492897;28;20383;-36
2022/10/12 04:48:24;;;;;;;;;;;6.00;99.90;;;;;;12489429;28;19978;-37
2022/10/12 04:54:26;;;;;;;;;;;5.80;99.90;;;;;;12496621;28;20015;-36
2022/10/12 05:00:33;;;;;;;;;;;5.80;99.90;;;;;;12488765;28;19933;-36
2022/10/12 05:06:35;;;;;;;;;;;5.80;99.90;;;;;;12500419;28;19978;-36
2022/10/12 05:12:37;;;;;;;;;;;6.00;99.90;;;;;;12488386;28;19925;-36
2022/10/12 05:18:39;;;;;;;;;;;6.00;99.90;;;;;;12490776;28;20435;-37
2022/10/12 05:24:41;;;;;;;;;;;5.90;99.90;;;;;;12497051;28;19971;-36
2022/10/12 05:30:43;;;;;;;;;;;5.70;99.90;;;;;;12492823;28;19996;-37
2022/10/12 05:36:44;;;;;;;;;;;5.60;99.90;;;;;;12490126;28;19925;-36
2022/10/12 05:42:46;;;;;;;;;;;5.60;99.90;;;;;;12509549;28;19972;-36
2022/10/12 05:48:48;;;;;;;;;;;5.80;99.90;;;;;;12513150;28;19928;-37
2022/10/12 05:54:49;;;;;;;;;;;5.90;99.90;;;;;;12486769;28;19929;-36
2022/10/12 06:00:51;;;;;;;;;;;5.80;99.90;;;;;;12506924;28;19941;-36
2022/10/12 06:06:53;;;;;;;;;;;5.90;99.90;;;;;;12502827;28;19932;-36
2022/10/12 06:12:55;;;;;;;;;;;5.90;99.90;;;;;;12499036;28;19935;-36
2022/10/12 06:18:56;;;;;;;;;;;5.70;99.90;;;;;;12502460;28;19925;-36
2022/10/12 06:24:58;;;;;;;;;;;5.70;99.90;;;;;;12509483;28;19940;-36
2022/10/12 06:31:00;;;;;;;;;;;5.80;99.90;;;;;;12506276;28;20385;-36
2022/10/12 06:37:02;;;;;;;;;;;5.80;99.90;;;;;;12502435;28;19930;-37
2022/10/12 06:43:04;;;;;;;;;;;5.70;99.90;;;;;;12500456;28;20984;-36
2022/10/12 06:49:05;;;;;;;;;;;5.80;99.90;;;;;;12509043;28;19971;-36
2022/10/12 06:55:07;;;;;;;;;;;6.20;99.90;;;;;;12489818;28;19945;-36
2022/10/12 07:01:09;;;;;;;;;;;6.20;99.90;;;;;;12502004;28;19933;-37
2022/10/12 07:07:11;;;;;;;;;;;6.30;99.90;;;;;;12499553;28;19925;-36
2022/10/12 07:13:13;;;;;;;;;;;6.20;99.90;;;;;;12503969;28;19971;-38
2022/10/12 07:19:14;;;;;;;;;;;6.30;99.90;;;;;;12501965;28;19932;-36
2022/10/12 07:25:16;;;;;;;;;;;6.30;99.90;;;;;;12503279;28;19925;-36
2022/10/12 07:31:18;;;;;;;;;;;6.40;99.90;;;;;;12489323;28;20040;-36
2022/10/12 07:37:20;;;;;;;;;;;6.60;99.90;;;;;;12490055;28;19963;-36
2022/10/12 07:43:22;;;;;;;;;;;6.70;99.90;;;;;;12504479;28;19925;-36
2022/10/12 07:49:24;;;;;;;;;;;6.80;99.90;;;;;;12500400;28;20414;-36
2022/10/12 07:55:26;;;;;;;;;;;7.00;99.90;;;;;;12499510;28;19932;-36
2022/10/12 08:01:28;;;;;;;;;;;7.10;99.90;;;;;;12497495;28;20651;-36
2022/10/12 08:07:30;;;;;;;;;;;7.20;99.90;;;;;;12502751;28;19924;-36
2022/10/12 08:13:33;;;;;;;;;;;7.30;99.90;;;;;;12494569;28;19933;-36
2022/10/12 08:19:35;;;;;;;;;;;7.40;99.90;;;;;;12494076;28;19925;-39
2022/10/12 08:25:37;;;;;;;;;;;7.40;99.90;;;;;;12500422;28;19925;-37
2022/10/12 08:31:38;;;;;;;;;;;7.60;99.90;;;;;;12502526;28;19928;-36
2022/10/12 08:37:40;;;;;;;;;;;7.90;99.90;;;;;;12499134;28;20059;-37
2022/10/12 08:43:45;;;;;;;;;;;8.00;99.90;;;;;;12452935;28;19929;-36
2022/10/12 08:49:47;;;;;;;;;;;8.30;99.90;;;;;;12453340;28;19926;-36
2022/10/12 08:55:51;;;;;;;;;;;8.60;99.90;;;;;;12489940;28;20369;-36
2022/10/12 09:01:54;;;;;;;;;;;8.90;99.90;;;;;;12507301;28;19925;-36
2022/10/12 09:08:01;;;;;;;;;;;9.20;99.90;;;;;;12500026;28;20304;-36
2022/10/12 09:14:22;;;;;;;;;;;9.50;99.90;;;;;;12501147;28;19925;-37
2022/10/12 09:20:30;;;;;;;;;;;9.80;99.90;;;;;;12521800;28;19924;-36
2022/10/12 09:26:36;;;;;;;;;;;10.00;99.90;;;;;;12514332;28;19948;-37
2022/10/12 09:32:50;;;;;;;;;;;10.60;99.90;;;;;;12533339;28;20299;-36
2022/10/12 09:38:52;;;;;;;;;;;11.00;99.90;;;;;;12561297;28;20277;-36
2022/10/12 09:44:58;;;;;;;;;;;11.00;99.90;;;;;;12554424;28;20300;-36
2022/10/12 09:51:01;;;;;;;;;;;11.50;99.90;;;;;;12576444;28;20299;-36
2022/10/12 09:57:02;;;;;;;;;;;11.30;99.90;;;;;;12561763;28;20019;-36
2022/10/12 10:03:21;;;;;;;;;;;11.70;99.90;;;;;;12546315;28;19933;-37
2022/10/12 10:09:30;;;;;;;;;;;12.30;99.90;;;;;;12566321;28;19929;-37
2022/10/12 10:15:34;;;;;;;;;;;12.90;99.90;;;;;;12548595;28;19929;-37
2022/10/12 10:21:39;;;;;;;;;;;13.40;99.90;;;;;;12563151;28;19929;-36
2022/10/12 10:27:41;;;;;;;;;;;13.60;99.90;;;;;;12554083;28;19925;-36
2022/10/12 10:33:43;;;;;;;;;;;13.80;99.90;;;;;;12552501;28;19965;-37
2022/10/12 10:39:46;;;;;;;;;;;14.10;99.90;;;;;;12556578;28;20265;-38
2022/10/12 10:45:50;;;;;;;;;;;14.50;99.90;;;;;;12550915;28;19925;-36
2022/10/12 10:51:56;;;;;;;;;;;14.60;99.90;;;;;;12550130;28;19929;-36
2022/10/12 10:58:03;;;;;;;;;;;14.90;99.90;;;;;;12551965;28;19925;-37
2022/10/12 11:04:12;;;;;;;;;;;15.30;99.90;;;;;;12550493;28;19932;-36
2022/10/12 11:10:26;;;;;;;;;;;15.40;99.90;;;;;;12555100;28;19925;-36
2022/10/12 11:16:40;;;;;;;;;;;15.20;99.90;;;;;;12555919;28;19935;-36
2022/10/12 11:22:48;;;;;;;;;;;14.60;99.90;;;;;;12548754;28;19930;-36
2022/10/12 11:28:52;;;;;;;;;;;14.80;99.90;;;;;;12554738;28;19929;-37
2022/10/12 11:34:55;;;;;;;;;;;14.90;99.90;;;;;;12552254;28;19936;-37
2022/10/12 11:41:08;;;;;;;;;;;15.00;99.90;;;;;;12557583;28;19928;-36
2022/10/12 11:47:44;;;;;;;;;;;15.20;99.90;;;;;;12558724;28;20407;-37
2022/10/12 11:53:47;;;;;;;;;;;15.80;99.90;;;;;;12541396;28;19974;-37
2022/10/12 11:59:54;;;;;;;;;;;15.40;99.90;;;;;;12540560;28;19925;-37
2022/10/12 12:06:16;;;;;;;;;;;15.10;99.90;;;;;;12543263;28;19929;-36
2022/10/12 12:12:20;;;;;;;;;;;15.00;99.90;;;;;;12545107;28;19932;-37
2022/10/12 12:18:24;;;;;;;;;;;14.70;99.90;;;;;;12522705;28;20296;-37
2022/10/12 12:24:25;;;;;;;;;;;14.70;99.90;;;;;;12548301;28;20295;-37
2022/10/12 12:30:32;;;;;;;;;;;15.00;99.90;;;;;;12555965;28;20301;-37
2022/10/12 12:36:35;;;;;;;;;;;15.20;99.90;;;;;;12548137;28;19924;-37
2022/10/12 12:42:37;;;;;;;;;;;15.40;99.90;;;;;;12553310;28;19932;-37
2022/10/12 12:48:41;;;;;;;;;;;15.50;99.90;;;;;;12563323;28;19924;-37
2022/10/12 12:55:04;;;;;;;;;;;15.80;99.90;;;;;;12560085;28;19925;-37
2022/10/12 13:01:14;;;;;;;;;;;16.00;99.90;;;;;;12565524;28;19967;-38
2022/10/12 13:07:18;;;;;;;;;;;15.70;99.90;;;;;;12554210;28;20437;-36
2022/10/12 13:13:31;;;;;;;;;;;15.50;99.90;;;;;;12567637;28;19929;-36
2022/10/12 13:19:39;;;;;;;;;;;15.50;99.90;;;;;;12549573;28;20007;-36
2022/10/12 13:25:43;;;;;;;;;;;15.30;99.90;;;;;;12570105;28;19944;-38
2022/10/12 13:31:46;;;;;;;;;;;15.60;99.90;;;;;;12554727;28;19932;-37
2022/10/12 13:37:59;;;;;;;;;;;15.80;99.90;;;;;;12561564;28;19932;-37
2022/10/12 13:44:04;;;;;;;;;;;15.90;99.90;;;;;;12556050;28;19929;-37
2022/10/12 13:50:16;;;;;;;;;;;15.90;99.90;;;;;;12547526;28;19925;-37
2022/10/12 13:56:19;;;;;;;;;;;15.80;99.90;;;;;;12515375;28;19925;-37
2022/10/12 14:02:23;;;;;;;;;;;15.70;99.90;;;;;;12554271;28;19928;-36
2022/10/12 14:08:25;;;;;;;;;;;15.60;99.90;;;;;;12556804;28;19932;-37
2022/10/12 14:14:32;;;;;;;;;;;15.30;99.90;;;;;;12548338;28;20040;-37
2022/10/12 14:20:38;;;;;;;;;;;15.20;99.90;;;;;;12564593;28;20296;-36
2022/10/12 14:26:44;;;;;;;;;;;15.10;99.90;;;;;;12551110;28;20034;-37
2022/10/12 14:32:46;;;;;;;;;;;15.00;99.90;;;;;;12552582;28;20266;-36
2022/10/12 14:38:49;;;;;;;;;;;14.80;99.90;;;;;;12557115;28;19928;-37
2022/10/12 14:44:51;;;;;;;;;;;14.70;99.90;;;;;;12555576;28;19933;-37
2022/10/12 14:50:53;;;;;;;;;;;14.70;99.90;;;;;;12562880;28;19925;-36
2022/10/12 14:56:55;;;;;;;;;;;14.70;99.90;;;;;;12551055;28;19975;-37
2022/10/12 15:02:57;;;;;;;;;;;14.70;99.90;;;;;;12553486;28;20372;-36
2022/10/12 15:08:59;;;;;;;;;;;14.60;99.90;;;;;;12565833;28;20058;-37
2022/10/12 15:15:09;;;;;;;;;;;14.60;99.90;;;;;;12558353;28;19939;-37
2022/10/12 15:21:12;;;;;;;;;;;14.60;99.90;;;;;;12549506;28;19940;-36
2022/10/12 15:27:14;;;;;;;;;;;14.50;99.90;;;;;;12544630;28;19932;-37
2022/10/12 15:33:16;;;;;;;;;;;14.40;99.90;;;;;;12548736;28;19976;-37
2022/10/12 15:39:18;;;;;;;;;;;14.40;99.90;;;;;;12551759;28;19925;-37
2022/10/12 15:45:19;;;;;;;;;;;14.30;99.90;;;;;;12547921;28;19932;-36
2022/10/12 15:51:23;;;;;;;;;;;14.10;99.90;;;;;;12540098;28;19932;-36
2022/10/12 15:57:24;;;;;;;;;;;14.00;99.90;;;;;;12543657;28;20397;-36
2022/10/12 16:03:30;;;;;;;;;;;13.90;99.90;;;;;;12545372;28;19925;-37
2022/10/12 16:09:31;;;;;;;;;;;13.70;99.90;;;;;;12563010;28;19929;-36
2022/10/12 16:15:34;;;;;;;;;;;13.50;99.90;;;;;;12544164;28;19929;-36
2022/10/12 16:21:35;;;;;;;;;;;13.20;99.90;;;;;;12546374;28;19924;-37
2022/10/12 16:27:37;;;;;;;;;;;13.10;99.90;;;;;;12555021;28;20339;-37
2022/10/12 16:33:40;;;;;;;;;;;12.70;99.90;;;;;;12539462;28;20577;-36
2022/10/12 16:39:44;;;;;;;;;;;12.40;99.90;;;;;;12552651;28;21594;-36
2022/10/12 16:45:53;;;;;;;;;;;12.20;99.90;;;;;;12550186;28;19933;-37
2022/10/12 16:51:55;;;;;;;;;;;12.10;99.90;;;;;;12561994;28;19925;-36
2022/10/12 16:57:57;;;;;;;;;;;11.90;99.90;;;;;;12540922;28;19934;-36
2022/10/12 17:04:00;;;;;;;;;;;11.70;99.90;;;;;;12556729;28;19929;-36
2022/10/12 17:10:02;;;;;;;;;;;11.60;99.90;;;;;;12557520;28;20406;-36
2022/10/12 17:22:25;;;;;;;;;;;11.90;99.90;;;;;;12551183;28;19940;-36
2022/10/12 17:28:26;;;;;;;;;;;11.70;99.90;;;;;;12558284;28;19931;-36
2022/10/12 17:34:30;;;;;;;;;;;11.30;99.90;;;;;;12559378;28;20558;-36
2022/10/12 17:40:38;;;;;;;;;;;11.20;99.90;;;;;;12559649;28;19929;-36
2022/10/12 17:46:41;;;;;;;;;;;11.20;99.90;;;;;;12562566;28;19925;-37
2022/10/12 17:52:43;;;;;;;;;;;11.00;99.90;;;;;;12563669;28;19975;-36
2022/10/12 17:58:44;;;;;;;;;;;11.00;99.90;;;;;;12547557;28;19925;-37
2022/10/12 18:04:46;;;;;;;;;;;11.00;99.90;;;;;;12560188;28;19932;-36
2022/10/12 18:10:49;;;;;;;;;;;10.90;99.90;;;;;;12561995;28;19931;-37
2022/10/12 18:16:51;;;;;;;;;;;11.00;99.90;;;;;;12559274;28;19931;-37
2022/10/12 18:22:52;;;;;;;;;;;11.00;99.90;;;;;;12553446;28;19928;-36
2022/10/12 18:28:54;;;;;;;;;;;11.10;99.90;;;;;;12558536;28;19924;-36
2022/10/12 18:34:56;;;;;;;;;;;11.10;99.90;;;;;;12556743;28;20015;-37
2022/10/12 18:41:05;;;;;;;;;;;11.20;99.90;;;;;;12554319;28;19932;-36
2022/10/12 18:47:06;;;;;;;;;;;11.30;99.90;;;;;;12546094;28;19929;-37
2022/10/12 18:53:08;;;;;;;;;;;11.20;99.90;;;;;;12548914;28;19929;-36
2022/10/12 18:59:10;;;;;;;;;;;11.30;99.90;;;;;;12552470;28;19932;-37
2022/10/12 19:05:12;;;;;;;;;;;11.40;99.90;;;;;;12556425;28;19980;-37
2022/10/12 19:11:16;;;;;;;;;;;11.50;99.90;;;;;;12562402;28;19933;-37
2022/10/12 19:17:18;;;;;;;;;;;11.60;99.90;;;;;;12542865;28;20507;-36
2022/10/12 19:23:20;;;;;;;;;;;11.30;99.90;;;;;;12551311;28;19936;-37
2022/10/12 19:29:21;;;;;;;;;;;11.50;99.90;;;;;;12555646;28;19925;-36
2022/10/12 19:35:23;;;;;;;;;;;11.50;99.90;;;;;;12558434;28;19932;-37
2022/10/12 19:41:28;;;;;;;;;;;11.60;99.90;;;;;;12565257;28;19953;-37
2022/10/12 19:47:31;;;;;;;;;;;11.70;99.90;;;;;;12556365;28;19928;-36
2022/10/12 19:53:32;;;;;;;;;;;11.70;99.90;;;;;;12559133;28;19937;-37
2022/10/12 19:59:34;;;;;;;;;;;11.60;99.90;;;;;;12555359;28;19929;-37
2022/10/12 20:05:36;;;;;;;;;;;11.60;99.90;;;;;;12552600;28;20385;-36
2022/10/12 20:11:38;;;;;;;;;;;11.70;99.90;;;;;;12559861;28;20065;-36
2022/10/12 20:17:40;;;;;;;;;;;11.60;99.90;;;;;;12556093;28;19928;-36
2022/10/12 20:23:42;;;;;;;;;;;11.50;99.90;;;;;;12531980;28;19931;-37
2022/10/12 20:29:43;;;;;;;;;;;11.50;99.90;;;;;;12557135;28;19935;-37
2022/10/12 20:35:46;;;;;;;;;;;11.30;99.90;;;;;;12555102;28;19931;-37
2022/10/12 20:41:48;;;;;;;;;;;11.20;99.90;;;;;;12544541;28;20066;-37
2022/10/12 20:47:50;;;;;;;;;;;11.10;99.90;;;;;;12546979;28;19925;-36
2022/10/12 20:53:52;;;;;;;;;;;11.10;99.90;;;;;;12554472;28;20028;-37
2022/10/12 20:59:54;;;;;;;;;;;11.00;99.90;;;;;;12529586;28;19925;-36
2022/10/12 21:06:00;;;;;;;;;;;11.00;99.90;;;;;;12553024;28;20299;-37
2022/10/12 21:12:02;;;;;;;;;;;11.00;99.90;;;;;;12559545;28;19971;-37
2022/10/12 21:18:04;;;;;;;;;;;10.90;99.90;;;;;;12565951;28;19985;-37
2022/10/12 21:24:07;;;;;;;;;;;10.70;99.90;;;;;;12570877;28;19929;-37
2022/10/12 21:30:08;;;;;;;;;;;10.40;99.90;;;;;;12570160;28;19925;-36
2022/10/12 21:36:10;;;;;;;;;;;10.30;99.90;;;;;;12574135;28;19948;-36
2022/10/12 21:42:12;;;;;;;;;;;10.40;99.90;;;;;;12554482;28;19924;-36
2022/10/12 21:48:14;;;;;;;;;;;10.60;99.90;;;;;;12565300;28;19928;-36
2022/10/12 21:54:16;;;;;;;;;;;10.70;99.90;;;;;;12567565;28;19925;-36
2022/10/12 22:00:17;;;;;;;;;;;10.70;99.90;;;;;;12554958;28;19929;-37
2022/10/12 22:06:20;;;;;;;;;;;10.70;99.90;;;;;;12555316;28;19925;-36
2022/10/12 22:12:23;;;;;;;;;;;10.70;99.90;;;;;;12570388;28;19928;-36
2022/10/12 22:18:25;;;;;;;;;;;10.60;99.90;;;;;;12565115;28;19947;-36
2022/10/12 22:24:27;;;;;;;;;;;10.70;99.90;;;;;;12563400;28;19931;-37
2022/10/12 22:30:28;;;;;;;;;;;10.60;99.90;;;;;;12557101;28;19924;-36
2022/10/12 22:36:30;;;;;;;;;;;10.60;99.90;;;;;;12563987;28;20254;-36
2022/10/12 22:42:32;;;;;;;;;;;10.70;99.90;;;;;;12564176;28;19928;-36
2022/10/12 22:48:35;;;;;;;;;;;10.70;99.90;;;;;;12562053;28;19981;-36
2022/10/12 22:54:37;;;;;;;;;;;10.70;99.90;;;;;;12559365;28;19931;-36
2022/10/12 23:00:38;;;;;;;;;;;10.70;99.90;;;;;;12551262;28;20277;-37
2022/10/12 23:06:40;;;;;;;;;;;10.80;99.90;;;;;;12562546;28;20269;-36
2022/10/12 23:12:42;;;;;;;;;;;10.80;99.90;;;;;;12551464;28;19925;-36
2022/10/12 23:18:44;;;;;;;;;;;10.80;99.90;;;;;;12555184;28;19932;-36
2022/10/12 23:24:46;;;;;;;;;;;10.80;99.90;;;;;;12548775;28;19924;-36
2022/10/12 23:30:48;;;;;;;;;;;10.80;99.90;;;;;;12558459;28;20044;-37
2022/10/12 23:36:49;;;;;;;;;;;10.80;99.90;;;;;;12544813;28;20300;-36
2022/10/12 23:42:51;;;;;;;;;;;10.90;99.90;;;;;;12551860;28;19928;-36
2022/10/12 23:48:53;;;;;;;;;;;10.90;99.90;;;;;;12549101;28;19947;-36
2022/10/12 23:54:54;;;;;;;;;;;10.90;99.90;;;;;;12549595;28;19929;-36
